createdAt,value
2023-02-14T00:01:29.248Z,0.70
2023-02-14T00:04:01.369Z,0.60
2023-02-14T00:06:35.815Z,0.60
2023-02-14T00:09:06.194Z,0.60
2023-02-14T00:11:36.953Z,0.60
2023-02-14T00:14:26.138Z,0.60
2023-02-14T00:16:56.423Z,0.50
2023-02-14T00:19:26.930Z,0.50
2023-02-14T00:21:57.345Z,0.40
2023-02-14T00:24:28.777Z,0.40
2023-02-14T00:26:58.861Z,0.40
2023-02-14T00:29:31.994Z,0.40
2023-02-14T00:32:02.466Z,0.40
2023-02-14T00:34:34.019Z,0.30
2023-02-14T00:37:04.038Z,0.30
2023-02-14T00:39:34.232Z,0.30
2023-02-14T00:42:04.258Z,0.30
2023-02-14T00:44:35.982Z,0.30
2023-02-14T00:47:06.238Z,0.30
2023-02-14T00:49:36.486Z,0.20
2023-02-14T00:52:06.706Z,0.20
2023-02-14T00:54:36.898Z,0.20
2023-02-14T00:57:08.477Z,0.20
2023-02-14T00:59:40.408Z,0.20
2023-02-14T01:02:10.753Z,0.20
2023-02-14T01:04:41.749Z,0.20
2023-02-14T01:07:12.772Z,0.20
2023-02-14T01:09:43.621Z,0.20
2023-02-14T01:12:14.269Z,0.20
2023-02-14T01:14:46.300Z,0.10
2023-02-14T01:17:16.340Z,0.10
2023-02-14T01:19:46.593Z,0.00
2023-02-14T01:22:16.635Z,0.00
2023-02-14T01:24:46.739Z,0.00
2023-02-14T01:27:16.810Z,0.00
2023-02-14T01:29:48.584Z,0.00
2023-02-14T01:32:18.889Z,0.00
2023-02-14T01:34:49.620Z,0.00
2023-02-14T01:37:19.945Z,0.10
2023-02-14T01:39:50.017Z,0.10
2023-02-14T01:42:20.048Z,0.10
2023-02-14T01:45:06.054Z,0.10
2023-02-14T01:47:40.350Z,0.10
2023-02-14T01:50:14.841Z,0.00
2023-02-14T01:52:49.641Z,-0.10
2023-02-14T01:55:23.398Z,-0.20
2023-02-14T01:57:56.874Z,-0.40
2023-02-14T02:00:46.088Z,-0.50
2023-02-14T02:03:18.499Z,-0.60
2023-02-14T02:05:53.178Z,-0.70
2023-02-14T02:08:23.597Z,-0.80
2023-02-14T02:10:53.883Z,-0.80
2023-02-14T02:13:24.927Z,-0.80
2023-02-14T02:16:10.034Z,-0.80
2023-02-14T02:18:54.866Z,-0.80
2023-02-14T02:21:54.529Z,-0.80
2023-02-14T02:24:34.034Z,-0.80
2023-02-14T02:27:43.981Z,-0.80
2023-02-14T02:30:42.646Z,-0.90
2023-02-14T02:33:51.643Z,-0.90
2023-02-14T02:36:56.609Z,-0.90
2023-02-14T02:39:52.284Z,-1.00
2023-02-14T02:42:36.908Z,-0.90
2023-02-14T02:45:17.680Z,-0.90
2023-02-14T02:47:59.070Z,-0.90
2023-02-14T02:50:51.180Z,-1.00
2023-02-14T02:53:26.443Z,-1.00
2023-02-14T02:56:31.892Z,-1.00
2023-02-14T02:59:07.224Z,-1.00
2023-02-14T03:01:40.235Z,-1.00
2023-02-14T03:04:30.461Z,-1.00
2023-02-14T03:07:24.161Z,-1.00
2023-02-14T03:09:58.275Z,-0.90
2023-02-14T03:13:08.648Z,-0.90
2023-02-14T03:16:00.762Z,-0.90
2023-02-14T03:19:03.501Z,-0.90
2023-02-14T03:21:39.953Z,-1.00
2023-02-14T03:24:16.230Z,-1.10
2023-02-14T03:26:51.357Z,-1.10
2023-02-14T03:29:32.136Z,-1.10
2023-02-14T03:32:07.184Z,-1.10
2023-02-14T03:34:45.998Z,-1.10
2023-02-14T03:37:19.956Z,-1.00
2023-02-14T03:39:59.591Z,-0.90
2023-02-14T03:42:32.335Z,-0.80
2023-02-14T03:45:07.175Z,-0.60
2023-02-14T03:47:39.212Z,-0.50
2023-02-14T03:50:12.233Z,-0.30
2023-02-14T03:52:44.322Z,-0.20
2023-02-14T03:55:19.624Z,-0.10
2023-02-14T03:57:55.743Z,0.10
2023-02-14T04:00:27.775Z,0.10
2023-02-14T04:03:02.837Z,0.20
2023-02-14T04:05:33.519Z,0.30
2023-02-14T04:08:03.656Z,0.30
2023-02-14T04:10:34.966Z,0.30
2023-02-14T04:13:05.236Z,0.40
2023-02-14T04:15:37.244Z,0.40
2023-02-14T04:18:24.656Z,0.40
2023-02-14T04:20:54.791Z,0.40
2023-02-14T04:23:24.938Z,0.40
2023-02-14T04:25:55.246Z,0.30
2023-02-14T04:28:25.344Z,0.30
2023-02-14T04:30:57.544Z,0.30
2023-02-14T04:33:27.868Z,0.20
2023-02-14T04:35:58.320Z,0.20
2023-02-14T04:38:28.435Z,0.30
2023-02-14T04:40:58.763Z,0.20
2023-02-14T04:43:29.188Z,0.20
2023-02-14T04:46:01.531Z,0.20
2023-02-14T04:48:31.544Z,0.20
2023-02-14T04:51:01.981Z,0.30
2023-02-14T04:53:32.224Z,0.30
2023-02-14T04:56:02.327Z,0.40
2023-02-14T04:58:32.575Z,0.50
2023-02-14T05:01:04.243Z,0.60
2023-02-14T05:03:34.360Z,0.70
2023-02-14T05:06:04.453Z,0.80
2023-02-14T05:08:34.694Z,0.80
2023-02-14T05:11:05.064Z,0.90
2023-02-14T05:13:35.141Z,0.90
2023-02-14T05:16:08.223Z,1.00
2023-02-14T05:18:38.405Z,1.00
2023-02-14T05:21:09.196Z,1.00
2023-02-14T05:23:39.577Z,1.00
2023-02-14T05:26:09.688Z,1.00
2023-02-14T05:28:41.638Z,1.00
2023-02-14T05:31:13.423Z,1.00
2023-02-14T05:33:43.838Z,0.90
2023-02-14T05:36:14.063Z,0.90
2023-02-14T05:38:44.083Z,0.90
2023-02-14T05:41:14.147Z,0.90
2023-02-14T05:43:44.219Z,0.90
2023-02-14T05:46:16.084Z,0.90
2023-02-14T05:48:46.992Z,0.90
2023-02-14T05:51:17.173Z,0.90
2023-02-14T05:53:47.369Z,0.90
2023-02-14T05:56:17.915Z,0.90
2023-02-14T05:58:48.154Z,1.00
2023-02-14T06:01:19.828Z,1.00
2023-02-14T06:03:50.057Z,1.00
2023-02-14T06:06:20.125Z,1.10
2023-02-14T06:08:50.131Z,1.20
2023-02-14T06:11:20.584Z,1.30
2023-02-14T06:13:50.616Z,1.30
2023-02-14T06:16:22.250Z,1.40
2023-02-14T06:18:52.360Z,1.40
2023-02-14T06:21:22.399Z,1.50
2023-02-14T06:23:52.438Z,1.50
2023-02-14T06:26:22.542Z,1.40
2023-02-14T06:28:56.455Z,1.40
2023-02-14T06:31:28.559Z,1.40
2023-02-14T06:33:58.902Z,1.50
2023-02-14T06:36:29.374Z,1.50
2023-02-14T06:38:59.451Z,1.50
2023-02-14T06:41:29.554Z,1.50
2023-02-14T06:43:59.606Z,1.50
2023-02-14T06:46:31.341Z,1.50
2023-02-14T06:49:01.428Z,1.50
2023-02-14T06:51:31.502Z,1.50
2023-02-14T06:54:01.527Z,1.50
2023-02-14T06:56:31.597Z,1.50
2023-02-14T06:59:01.639Z,1.50
2023-02-14T07:01:33.352Z,1.50
2023-02-14T07:04:04.018Z,1.50
2023-02-14T07:06:34.213Z,1.50
2023-02-14T07:09:04.247Z,1.60
2023-02-14T07:11:34.462Z,1.50
2023-02-14T07:14:04.471Z,1.50
2023-02-14T07:16:36.140Z,1.50
2023-02-14T07:19:06.276Z,1.40
2023-02-14T07:21:36.361Z,1.40
2023-02-14T07:24:06.517Z,1.40
2023-02-14T07:26:36.621Z,1.30
2023-02-14T07:29:06.653Z,1.30
2023-02-14T07:31:38.976Z,1.30
2023-02-14T07:34:09.097Z,1.30
2023-02-14T07:36:40.681Z,1.30
2023-02-14T07:39:10.682Z,1.30
2023-02-14T07:41:40.863Z,1.30
2023-02-14T07:44:11.256Z,1.20
2023-02-14T07:46:43.014Z,1.10
2023-02-14T07:49:13.123Z,0.90
2023-02-14T07:51:43.315Z,0.80
2023-02-14T07:54:13.310Z,0.80
2023-02-14T07:56:43.476Z,0.70
2023-02-14T07:59:13.492Z,0.70
2023-02-14T08:01:45.416Z,0.60
2023-02-14T08:04:15.844Z,0.50
2023-02-14T08:06:46.240Z,0.40
2023-02-14T08:09:25.367Z,0.30
2023-02-14T08:12:13.618Z,0.30
2023-02-14T08:14:45.013Z,0.20
2023-02-14T08:17:16.978Z,0.20
2023-02-14T08:19:47.132Z,0.20
2023-02-14T08:22:18.874Z,0.20
2023-02-14T08:24:49.141Z,0.20
2023-02-14T08:27:19.391Z,0.20
2023-02-14T08:29:49.654Z,0.10
2023-02-14T08:32:22.038Z,0.00
2023-02-14T08:34:52.455Z,0.00
2023-02-14T08:37:22.572Z,-0.10
2023-02-14T08:39:52.918Z,-0.20
2023-02-14T08:42:23.109Z,-0.40
2023-02-14T08:44:53.165Z,-0.40
2023-02-14T08:47:24.877Z,-0.50
2023-02-14T08:49:54.962Z,-0.50
2023-02-14T08:52:25.076Z,-0.50
2023-02-14T08:54:55.305Z,-0.60
2023-02-14T08:57:25.600Z,-0.70
2023-02-14T08:59:55.582Z,-0.60
2023-02-14T09:02:27.345Z,-0.60
2023-02-14T09:04:57.961Z,-0.40
2023-02-14T09:07:28.285Z,-0.30
2023-02-14T09:09:58.895Z,-0.10
2023-02-14T09:12:57.642Z,-0.10
2023-02-14T09:15:27.888Z,-0.10
2023-02-14T09:17:57.969Z,-0.10
2023-02-14T09:20:28.205Z,-0.10
2023-02-14T09:22:59.093Z,-0.10
2023-02-14T09:25:29.141Z,-0.10
2023-02-14T09:28:00.805Z,-0.10
2023-02-14T09:30:30.901Z,-0.10
2023-02-14T09:33:00.981Z,0.00
2023-02-14T09:35:47.638Z,0.00
2023-02-14T09:38:18.098Z,0.00
2023-02-14T09:40:48.967Z,0.00
2023-02-14T09:43:25.931Z,0.00
2023-02-14T09:45:58.608Z,0.00
2023-02-14T09:48:34.948Z,0.00
2023-02-14T09:51:09.490Z,0.00
2023-02-14T09:53:49.435Z,-0.10
2023-02-14T09:56:25.427Z,-0.20
2023-02-14T09:59:05.967Z,-0.30
2023-02-14T10:01:40.714Z,-0.30
2023-02-14T10:04:23.518Z,-0.40
2023-02-14T10:06:57.309Z,-0.50
2023-02-14T10:09:56.218Z,-0.50
2023-02-14T10:12:34.092Z,-0.60
2023-02-14T10:15:16.436Z,-0.60
2023-02-14T10:17:50.230Z,-0.70
2023-02-14T10:20:26.364Z,-0.70
2023-02-14T10:23:05.022Z,-0.70
2023-02-14T10:25:43.425Z,-0.60
2023-02-14T10:28:17.292Z,-0.70
2023-02-14T10:30:58.878Z,-0.70
2023-02-14T10:33:34.446Z,-0.70
2023-02-14T10:36:07.587Z,-0.80
2023-02-14T10:38:47.005Z,-0.80
2023-02-14T10:41:28.568Z,-0.80
2023-02-14T10:44:13.346Z,-0.90
2023-02-14T10:46:50.867Z,-0.90
2023-02-14T10:49:36.839Z,-0.90
2023-02-14T10:52:15.902Z,-1.00
2023-02-14T10:54:48.104Z,-1.10
2023-02-14T10:57:24.078Z,-1.10
2023-02-14T10:59:56.491Z,-1.20
2023-02-14T11:02:32.354Z,-1.20
2023-02-14T11:05:03.379Z,-1.10
2023-02-14T11:07:33.672Z,-1.20
2023-02-14T11:10:04.569Z,-1.20
2023-02-14T11:12:38.252Z,-1.30
2023-02-14T11:15:21.469Z,-1.30
2023-02-14T11:18:09.792Z,-1.30
2023-02-14T11:20:39.887Z,-1.40
2023-02-14T11:23:22.437Z,-1.40
2023-02-14T11:25:56.065Z,-1.50
2023-02-14T11:28:26.749Z,-1.40
2023-02-14T11:30:57.358Z,-1.30
2023-02-14T11:33:36.978Z,-1.30
2023-02-14T11:36:11.905Z,-1.30
2023-02-14T11:38:44.580Z,-1.30
2023-02-14T11:41:17.491Z,-1.40
2023-02-14T11:43:50.048Z,-1.50
2023-02-14T11:46:32.492Z,-1.50
2023-02-14T11:49:06.109Z,-1.50
2023-02-14T11:51:38.187Z,-1.50
2023-02-14T11:54:09.514Z,-1.70
2023-02-14T11:56:52.122Z,-1.80
2023-02-14T11:59:33.134Z,-1.90
2023-02-14T12:02:07.028Z,-1.90
2023-02-14T12:04:46.471Z,-2.00
2023-02-14T12:07:26.834Z,-2.00
2023-02-14T12:10:22.514Z,-1.90
2023-02-14T12:12:54.981Z,-1.90
2023-02-14T12:15:38.794Z,-1.80
2023-02-14T12:18:42.892Z,-1.90
2023-02-14T12:21:40.236Z,-1.90
2023-02-14T12:24:22.749Z,-1.90
2023-02-14T12:27:00.096Z,-2.00
2023-02-14T12:29:37.522Z,-2.10
2023-02-14T12:32:19.017Z,-2.20
2023-02-14T12:34:49.537Z,-2.30
2023-02-14T12:37:50.730Z,-2.20
2023-02-14T12:40:34.196Z,-2.20
2023-02-14T12:43:17.687Z,-2.10
2023-02-14T12:46:18.015Z,-2.10
2023-02-14T12:49:04.073Z,-2.20
2023-02-14T12:51:56.688Z,-2.00
2023-02-14T12:54:45.004Z,-2.00
2023-02-14T12:57:28.812Z,-2.00
2023-02-14T13:00:09.622Z,-2.00
2023-02-14T13:03:16.435Z,-1.90
2023-02-14T13:05:55.830Z,-1.90
2023-02-14T13:08:46.310Z,-2.00
2023-02-14T13:11:30.008Z,-1.90
2023-02-14T13:14:12.258Z,-1.90
2023-02-14T13:16:49.214Z,-1.70
2023-02-14T13:19:34.965Z,-1.50
2023-02-14T13:22:07.366Z,-1.40
2023-02-14T13:24:41.772Z,-1.20
2023-02-14T13:27:22.184Z,-1.10
2023-02-14T13:29:55.107Z,-1.00
2023-02-14T13:32:28.391Z,-1.10
2023-02-14T13:34:59.479Z,-1.20
2023-02-14T13:37:31.084Z,-1.40
2023-02-14T13:40:04.781Z,-1.50
2023-02-14T13:42:55.984Z,-1.60
2023-02-14T13:45:54.399Z,-1.50
2023-02-14T13:48:27.413Z,-1.30
2023-02-14T13:50:59.993Z,-1.10
2023-02-14T13:53:40.183Z,-1.00
2023-02-14T13:56:35.377Z,-0.90
2023-02-14T13:59:08.660Z,-0.80
2023-02-14T14:01:42.472Z,-0.80
2023-02-14T14:04:37.366Z,-0.70
2023-02-14T14:07:23.754Z,-0.60
2023-02-14T14:10:02.411Z,-0.60
2023-02-14T14:12:44.205Z,-0.50
2023-02-14T14:15:25.023Z,-0.50
2023-02-14T14:18:40.639Z,-0.40
2023-02-14T14:21:25.445Z,-0.30
2023-02-14T14:24:24.760Z,-0.10
2023-02-14T14:27:00.921Z,0.00
2023-02-14T14:29:35.648Z,0.10
2023-02-14T14:32:18.772Z,0.20
2023-02-14T14:34:52.843Z,0.30
2023-02-14T14:37:24.907Z,0.30
2023-02-14T14:39:56.699Z,0.40
2023-02-14T14:42:30.527Z,0.50
2023-02-14T14:45:03.960Z,0.60
2023-02-14T14:47:44.636Z,0.70
2023-02-14T14:50:20.146Z,0.90
2023-02-14T14:52:51.346Z,1.00
2023-02-14T14:55:24.738Z,1.20
2023-02-14T14:57:56.478Z,1.30
2023-02-14T15:00:31.087Z,1.50
2023-02-14T15:03:07.040Z,1.50
2023-02-14T15:05:39.981Z,1.70
2023-02-14T15:08:24.011Z,1.80
2023-02-14T15:10:57.264Z,1.90
2023-02-14T15:13:54.400Z,2.00
2023-02-14T15:16:27.441Z,2.00
2023-02-14T15:19:02.111Z,2.00
2023-02-14T15:21:34.815Z,2.00
2023-02-14T15:24:06.417Z,2.10
2023-02-14T15:26:39.097Z,2.20
2023-02-14T15:29:09.770Z,2.40
2023-02-14T15:31:42.682Z,2.50
2023-02-14T15:34:16.283Z,2.70
2023-02-14T15:36:49.651Z,2.80
2023-02-14T15:39:21.916Z,3.00
2023-02-14T15:41:55.200Z,3.10
2023-02-14T15:44:27.466Z,3.30
2023-02-14T15:46:59.343Z,3.40
2023-02-14T15:49:36.995Z,3.50
2023-02-14T15:52:08.315Z,3.60
2023-02-14T15:54:41.544Z,3.70
2023-02-14T15:57:25.269Z,3.90
2023-02-14T15:59:56.341Z,4.10
2023-02-14T16:02:33.745Z,4.20
2023-02-14T16:05:20.251Z,4.40
2023-02-14T16:08:01.303Z,4.50
2023-02-14T16:10:32.628Z,4.80
2023-02-14T16:13:04.758Z,4.90
2023-02-14T16:18:07.915Z,5.30
2023-02-14T16:20:44.237Z,5.60
2023-02-14T16:23:26.034Z,5.80
2023-02-14T16:25:57.887Z,5.90
2023-02-14T16:28:32.434Z,6.20
2023-02-14T16:31:06.306Z,6.40
2023-02-14T16:33:39.698Z,6.60
2023-02-14T16:36:14.655Z,6.90
2023-02-14T16:38:46.639Z,7.10
2023-02-14T16:41:22.428Z,7.20
2023-02-14T16:43:53.083Z,7.20
2023-02-14T16:46:25.835Z,7.50
2023-02-14T16:48:57.907Z,7.60
2023-02-14T16:51:30.640Z,7.70
2023-02-14T16:54:02.098Z,8.00
2023-02-14T16:56:39.544Z,8.10
2023-02-14T16:59:09.788Z,8.00
2023-02-14T17:01:39.885Z,8.20
2023-02-14T17:04:11.607Z,8.20
2023-02-14T17:06:47.673Z,8.20
2023-02-14T17:09:19.978Z,8.50
2023-02-14T17:11:54.840Z,8.60
2023-02-14T17:14:30.067Z,8.50
2023-02-14T17:17:01.050Z,8.50
2023-02-14T17:19:33.710Z,8.60
2023-02-14T17:22:05.069Z,8.40
2023-02-14T17:24:36.100Z,8.60
2023-02-14T17:27:07.032Z,8.80
2023-02-14T17:29:37.807Z,9.00
2023-02-14T17:32:08.189Z,9.20
2023-02-14T17:34:40.092Z,9.40
2023-02-14T17:37:10.162Z,8.80
2023-02-14T17:39:40.297Z,8.50
2023-02-14T17:42:12.028Z,8.50
2023-02-14T17:44:42.293Z,8.30
2023-02-14T17:47:12.307Z,8.40
2023-02-14T17:49:43.942Z,8.40
2023-02-14T17:52:14.168Z,8.60
2023-02-14T17:54:45.132Z,8.40
2023-02-14T17:57:15.164Z,8.20
2023-02-14T17:59:45.963Z,8.20
2023-02-14T18:02:16.564Z,8.40
2023-02-14T18:05:15.240Z,8.40
2023-02-14T18:07:45.475Z,8.40
2023-02-14T18:10:15.761Z,8.70
2023-02-14T18:12:45.811Z,9.10
2023-02-14T18:15:15.931Z,8.90
2023-02-14T18:17:48.178Z,9.00
2023-02-14T18:20:20.106Z,9.20
2023-02-14T18:22:50.120Z,9.30
2023-02-14T18:25:20.320Z,9.40
2023-02-14T18:27:50.570Z,9.50
2023-02-14T18:30:21.061Z,9.80
2023-02-14T18:32:51.161Z,9.80
2023-02-14T18:35:22.834Z,9.90
2023-02-14T18:37:52.900Z,9.90
2023-02-14T18:40:23.020Z,9.80
2023-02-14T18:42:53.293Z,9.70
2023-02-14T18:45:23.640Z,9.70
2023-02-14T18:47:53.818Z,9.60
2023-02-14T18:50:25.658Z,9.70
2023-02-14T18:52:56.449Z,9.60
2023-02-14T18:55:27.356Z,9.50
2023-02-14T18:57:57.653Z,9.30
2023-02-14T19:00:32.831Z,9.20
2023-02-14T19:03:04.246Z,9.20
2023-02-14T19:05:37.033Z,9.10
2023-02-14T19:08:07.490Z,8.60
2023-02-14T19:10:40.568Z,8.20
2023-02-14T19:13:10.603Z,8.10
2023-02-14T19:15:41.326Z,7.80
2023-02-14T19:18:11.545Z,7.60
2023-02-14T19:20:43.423Z,7.60
2023-02-14T19:23:13.594Z,7.80
2023-02-14T19:25:43.733Z,7.90
2023-02-14T19:28:14.084Z,7.90
2023-02-14T19:30:44.275Z,7.90
2023-02-14T19:33:14.343Z,7.80
2023-02-14T19:35:46.312Z,7.90
2023-02-14T19:38:16.309Z,8.40
2023-02-14T19:40:47.658Z,8.80
2023-02-14T19:43:18.119Z,9.10
2023-02-14T19:45:48.576Z,9.20
2023-02-14T19:48:18.842Z,9.30
2023-02-14T19:50:50.650Z,9.30
2023-02-14T19:53:20.683Z,9.40
2023-02-14T19:55:50.835Z,9.10
2023-02-14T19:58:20.847Z,9.00
2023-02-14T20:00:59.272Z,8.90
2023-02-14T20:03:30.321Z,8.70
2023-02-14T20:06:02.252Z,8.60
2023-02-14T20:08:32.424Z,8.60
2023-02-14T20:11:02.824Z,8.40
2023-02-14T20:13:33.406Z,8.20
2023-02-14T20:16:04.767Z,7.90
2023-02-14T20:18:37.624Z,7.60
2023-02-14T20:21:09.949Z,7.10
2023-02-14T20:23:39.997Z,6.70
2023-02-14T20:26:14.861Z,6.30
2023-02-14T20:28:45.318Z,6.10
2023-02-14T20:31:19.669Z,5.80
2023-02-14T20:33:52.018Z,5.60
2023-02-14T20:36:23.809Z,5.40
2023-02-14T20:38:57.613Z,5.30
2023-02-14T20:41:28.344Z,5.10
2023-02-14T20:44:04.327Z,5.00
2023-02-14T20:46:35.423Z,4.90
2023-02-14T20:49:06.013Z,4.80
2023-02-14T20:51:37.968Z,4.70
2023-02-14T20:54:08.122Z,4.70
2023-02-14T20:56:40.160Z,4.60
2023-02-14T20:59:11.748Z,4.60
2023-02-14T21:01:42.434Z,4.60
2023-02-14T21:04:12.636Z,4.50
2023-02-14T21:06:44.394Z,4.50
2023-02-14T21:09:14.416Z,4.50
2023-02-14T21:11:44.612Z,4.60
2023-02-14T21:14:14.837Z,4.50
2023-02-14T21:16:45.236Z,4.60
2023-02-14T21:19:15.698Z,4.80
2023-02-14T21:21:47.391Z,5.20
2023-02-14T21:24:18.631Z,5.50
2023-02-14T21:26:48.965Z,5.70
2023-02-14T21:29:19.541Z,5.90
2023-02-14T21:31:49.739Z,6.00
2023-02-14T21:34:19.915Z,6.00
2023-02-14T21:36:54.037Z,6.00
2023-02-14T21:39:27.982Z,6.00
2023-02-14T21:41:58.102Z,6.00
2023-02-14T21:44:45.821Z,5.90
2023-02-14T21:47:15.923Z,5.80
2023-02-14T21:50:03.026Z,5.70
2023-02-14T21:52:34.765Z,5.60
2023-02-14T21:55:04.907Z,5.50
2023-02-14T21:57:35.005Z,5.40
2023-02-14T22:00:06.340Z,5.20
2023-02-14T22:02:36.756Z,5.00
2023-02-14T22:05:08.262Z,4.80
2023-02-14T22:07:40.413Z,4.60
2023-02-14T22:10:10.974Z,4.30
2023-02-14T22:12:41.056Z,4.20
2023-02-14T22:15:11.955Z,4.00
2023-02-14T22:17:42.210Z,3.80
2023-02-14T22:20:12.996Z,3.50
2023-02-14T22:22:44.784Z,3.20
2023-02-14T22:25:14.794Z,2.80
2023-02-14T22:27:45.088Z,2.50
2023-02-14T22:30:16.215Z,2.10
2023-02-14T22:32:46.521Z,1.70
2023-02-14T22:35:16.610Z,1.50
2023-02-14T22:37:48.343Z,1.20
2023-02-14T22:40:18.538Z,1.00
2023-02-14T22:42:48.788Z,0.80
2023-02-14T22:45:19.156Z,0.60
2023-02-14T22:47:49.452Z,0.40
2023-02-14T22:50:20.008Z,0.30
2023-02-14T22:52:51.868Z,0.10
2023-02-14T22:55:21.932Z,0.00
2023-02-14T22:57:52.085Z,-0.20
2023-02-14T23:00:22.389Z,-0.30
2023-02-14T23:02:52.617Z,-0.30
2023-02-14T23:05:22.697Z,-0.30
2023-02-14T23:07:54.490Z,-0.40
2023-02-14T23:10:24.699Z,-0.40
2023-02-14T23:13:11.534Z,-0.40
2023-02-14T23:15:58.789Z,-0.50
2023-02-14T23:18:46.609Z,-0.40
2023-02-14T23:21:33.914Z,-0.20
2023-02-14T23:24:05.835Z,0.00
2023-02-14T23:26:37.342Z,0.10
2023-02-14T23:29:07.629Z,0.10
2023-02-14T23:31:37.883Z,0.10
2023-02-14T23:34:08.249Z,0.10
2023-02-14T23:36:38.314Z,0.00
2023-02-14T23:39:10.322Z,-0.10
2023-02-14T23:41:49.970Z,-0.20
2023-02-14T23:44:21.762Z,-0.30
2023-02-14T23:46:52.770Z,-0.40
2023-02-14T23:49:23.734Z,-0.30
2023-02-14T23:51:55.402Z,-0.30
2023-02-14T23:54:27.747Z,-0.20
2023-02-14T23:56:58.599Z,-0.20
2023-02-14T23:59:29.064Z,-0.30
